createdAt,value
2023-02-05T00:01:30.194Z,1.50
2023-02-05T00:03:57.657Z,1.40
2023-02-05T00:06:25.434Z,1.50
2023-02-05T00:08:52.842Z,1.60
2023-02-05T00:11:20.457Z,1.47
2023-02-05T00:13:47.960Z,1.20
2023-02-05T00:16:17.578Z,1.77
2023-02-05T00:18:45.770Z,1.47
2023-02-05T00:21:13.912Z,1.47
2023-02-05T00:23:41.492Z,1.40
2023-02-05T00:26:10.606Z,1.50
2023-02-05T00:28:38.903Z,1.30
2023-02-05T00:31:11.550Z,1.30
2023-02-05T00:33:39.276Z,1.50
2023-02-05T00:36:06.941Z,1.33
2023-02-05T00:38:34.522Z,1.40
2023-02-05T00:41:02.050Z,1.40
2023-02-05T00:43:29.498Z,1.30
2023-02-05T00:45:57.068Z,1.50
2023-02-05T00:48:24.552Z,1.40
2023-02-05T00:50:53.516Z,1.30
2023-02-05T00:53:21.491Z,1.60
2023-02-05T00:55:49.145Z,1.37
2023-02-05T00:58:16.949Z,1.50
2023-02-05T01:00:45.312Z,1.47
2023-02-05T01:03:13.090Z,1.40
2023-02-05T01:05:42.273Z,1.60
2023-02-05T01:08:11.887Z,1.50
2023-02-05T01:10:39.750Z,1.53
2023-02-05T01:13:07.865Z,1.53
2023-02-05T01:15:35.742Z,1.50
2023-02-05T01:18:03.391Z,1.50
2023-02-05T01:20:30.938Z,1.37
2023-02-05T01:22:58.414Z,1.50
2023-02-05T01:25:25.989Z,1.40
2023-02-05T01:27:53.443Z,1.43
2023-02-05T01:30:20.972Z,1.50
2023-02-05T01:32:49.390Z,1.40
2023-02-05T01:35:16.820Z,1.40
2023-02-05T01:37:44.309Z,1.40
2023-02-05T01:40:15.297Z,1.50
2023-02-05T01:42:42.850Z,1.50
2023-02-05T01:45:25.404Z,1.40
2023-02-05T01:48:02.522Z,1.17
2023-02-05T01:50:37.735Z,1.23
2023-02-05T01:53:10.918Z,1.30
2023-02-05T01:55:41.357Z,1.30
2023-02-05T01:58:09.803Z,1.33
2023-02-05T02:00:37.272Z,1.20
2023-02-05T02:03:04.912Z,1.40
2023-02-05T02:05:32.649Z,1.40
2023-02-05T02:08:00.421Z,1.60
2023-02-05T02:10:28.225Z,1.37
2023-02-05T02:12:55.820Z,1.60
2023-02-05T02:15:25.653Z,1.50
2023-02-05T02:17:55.693Z,1.50
2023-02-05T02:20:26.262Z,1.40
2023-02-05T02:22:56.758Z,1.50
2023-02-05T02:25:24.170Z,1.40
2023-02-05T02:27:55.623Z,1.40
2023-02-05T02:30:35.790Z,1.47
2023-02-05T02:33:09.193Z,1.50
2023-02-05T02:35:49.701Z,1.37
2023-02-05T02:38:20.699Z,1.60
2023-02-05T02:40:52.772Z,1.60
2023-02-05T02:43:59.813Z,1.30
2023-02-05T02:46:38.398Z,1.43
2023-02-05T02:49:07.474Z,1.30
2023-02-05T02:51:37.083Z,1.50
2023-02-05T02:54:07.111Z,1.60
2023-02-05T02:56:37.979Z,1.30
2023-02-05T02:59:08.104Z,1.40
2023-02-05T03:01:39.851Z,1.40
2023-02-05T03:04:10.497Z,1.50
2023-02-05T03:06:39.091Z,1.60
2023-02-05T03:09:11.784Z,1.40
2023-02-05T03:11:39.218Z,1.67
2023-02-05T03:14:06.878Z,1.37
2023-02-05T03:16:37.973Z,1.50
2023-02-05T03:19:06.449Z,1.47
2023-02-05T03:21:35.874Z,1.67
2023-02-05T03:24:03.282Z,1.50
2023-02-05T03:26:32.417Z,1.60
2023-02-05T03:29:31.877Z,1.60
2023-02-05T03:32:19.519Z,1.50
2023-02-05T03:34:50.020Z,1.60
2023-02-05T03:37:19.603Z,1.50
2023-02-05T03:40:10.910Z,1.60
2023-02-05T03:42:38.326Z,1.60
2023-02-05T03:45:08.548Z,1.60
2023-02-05T03:47:38.790Z,1.60
2023-02-05T03:50:18.470Z,1.70
2023-02-05T03:52:49.168Z,1.50
2023-02-05T03:55:20.091Z,1.27
2023-02-05T03:57:58.927Z,1.43
2023-02-05T04:00:27.788Z,1.50
2023-02-05T04:02:56.236Z,1.57
2023-02-05T04:05:28.605Z,1.60
2023-02-05T04:07:57.692Z,1.67
2023-02-05T04:10:30.729Z,1.50
2023-02-05T04:13:00.964Z,1.40
2023-02-05T04:15:29.182Z,1.50
2023-02-05T04:17:59.381Z,1.60
2023-02-05T04:20:29.312Z,1.47
2023-02-05T04:22:57.286Z,1.47
2023-02-05T04:25:26.051Z,1.60
2023-02-05T04:27:55.291Z,1.57
2023-02-05T04:30:23.505Z,1.63
2023-02-05T04:32:51.496Z,1.50
2023-02-05T04:35:19.730Z,1.37
2023-02-05T04:37:48.937Z,1.23
2023-02-05T04:40:17.180Z,1.43
2023-02-05T04:42:45.321Z,1.47
2023-02-05T04:45:12.787Z,1.70
2023-02-05T04:47:40.285Z,1.60
2023-02-05T04:50:07.816Z,1.50
2023-02-05T04:52:35.239Z,1.43
2023-02-05T04:55:02.760Z,1.53
2023-02-05T04:57:31.262Z,1.60
2023-02-05T04:59:58.718Z,1.60
2023-02-05T05:02:26.157Z,1.63
2023-02-05T05:04:53.573Z,1.50
2023-02-05T05:07:20.988Z,1.50
2023-02-05T05:09:48.411Z,1.60
2023-02-05T05:12:15.894Z,1.60
2023-02-05T05:14:43.317Z,1.50
2023-02-05T05:17:12.659Z,1.70
2023-02-05T05:19:40.089Z,1.70
2023-02-05T05:22:07.569Z,1.30
2023-02-05T05:24:34.913Z,1.50
2023-02-05T05:27:02.364Z,1.60
2023-02-05T05:29:29.854Z,1.53
2023-02-05T05:31:57.326Z,1.70
2023-02-05T05:34:24.809Z,1.80
2023-02-05T05:36:53.548Z,1.47
2023-02-05T05:39:39.499Z,1.50
2023-02-05T05:42:33.193Z,1.80
2023-02-05T05:45:00.588Z,1.60
2023-02-05T05:47:28.056Z,1.50
2023-02-05T05:49:55.513Z,1.60
2023-02-05T05:52:22.924Z,1.80
2023-02-05T05:54:50.363Z,1.77
2023-02-05T05:57:17.764Z,1.70
2023-02-05T05:59:45.127Z,1.60
2023-02-05T06:02:12.618Z,1.50
2023-02-05T06:04:40.203Z,1.80
2023-02-05T06:07:07.706Z,1.60
2023-02-05T06:09:35.315Z,1.77
2023-02-05T06:12:02.877Z,1.87
2023-02-05T06:14:30.987Z,1.47
2023-02-05T06:16:58.492Z,2.17
2023-02-05T06:19:26.219Z,1.77
2023-02-05T06:21:53.832Z,1.80
2023-02-05T06:24:21.403Z,1.80
2023-02-05T06:26:49.033Z,1.80
2023-02-05T06:29:16.589Z,1.80
2023-02-05T06:31:44.203Z,1.87
2023-02-05T06:34:11.936Z,1.80
2023-02-05T06:36:39.601Z,1.87
2023-02-05T06:39:07.984Z,1.53
2023-02-05T06:41:35.695Z,2.10
2023-02-05T06:44:04.557Z,1.77
2023-02-05T06:46:32.210Z,1.60
2023-02-05T06:48:59.629Z,1.70
2023-02-05T06:51:27.130Z,1.80
2023-02-05T06:53:57.740Z,1.83
2023-02-05T06:56:25.790Z,1.70
2023-02-05T06:58:53.163Z,1.67
2023-02-05T07:01:20.803Z,1.67
2023-02-05T07:03:48.631Z,1.90
2023-02-05T07:06:16.191Z,1.90
2023-02-05T07:08:43.618Z,1.70
2023-02-05T07:11:11.010Z,1.73
2023-02-05T07:13:38.639Z,1.90
2023-02-05T07:16:06.468Z,1.90
2023-02-05T07:18:34.638Z,1.70
2023-02-05T07:21:07.964Z,1.60
2023-02-05T07:23:36.450Z,1.70
2023-02-05T07:26:07.937Z,1.77
2023-02-05T07:28:35.501Z,1.83
2023-02-05T07:31:07.068Z,1.50
2023-02-05T07:33:36.438Z,1.60
2023-02-05T07:36:04.842Z,2.07
2023-02-05T07:38:32.898Z,1.93
2023-02-05T07:41:03.713Z,2.03
2023-02-05T07:43:32.292Z,2.10
2023-02-05T07:46:00.460Z,2.47
2023-02-05T07:48:27.929Z,3.47
2023-02-05T07:50:55.366Z,2.80
2023-02-05T07:53:22.957Z,2.70
2023-02-05T07:55:50.479Z,3.20
2023-02-05T07:58:18.084Z,3.60
2023-02-05T08:00:45.628Z,2.77
2023-02-05T08:03:13.320Z,3.30
2023-02-05T08:05:41.264Z,2.87
2023-02-05T08:08:08.680Z,3.77
2023-02-05T08:10:36.126Z,2.90
2023-02-05T08:13:03.581Z,2.87
2023-02-05T08:15:30.981Z,3.10
2023-02-05T08:17:58.400Z,3.37
2023-02-05T08:20:25.784Z,3.27
2023-02-05T08:22:53.320Z,3.20
2023-02-05T08:25:20.799Z,3.23
2023-02-05T08:27:49.273Z,3.53
2023-02-05T08:30:17.811Z,4.00
2023-02-05T08:32:48.257Z,3.70
2023-02-05T08:35:15.785Z,3.57
2023-02-05T08:37:43.246Z,3.90
2023-02-05T08:40:11.076Z,4.20
2023-02-05T08:42:38.500Z,3.93
2023-02-05T08:45:09.113Z,3.90
2023-02-05T08:47:37.013Z,4.07
2023-02-05T08:50:05.657Z,4.40
2023-02-05T08:52:33.338Z,4.70
2023-02-05T08:55:00.852Z,4.80
2023-02-05T08:57:29.215Z,4.73
2023-02-05T08:59:56.996Z,4.83
2023-02-05T09:02:27.831Z,4.53
2023-02-05T09:05:07.671Z,4.70
2023-02-05T09:07:36.911Z,4.37
2023-02-05T09:10:04.620Z,4.33
2023-02-05T09:12:31.985Z,5.40
2023-02-05T09:14:59.412Z,4.73
2023-02-05T09:17:27.376Z,4.63
2023-02-05T09:19:55.058Z,5.13
2023-02-05T09:22:22.616Z,4.57
2023-02-05T09:24:50.128Z,4.70
2023-02-05T09:27:17.807Z,4.90
2023-02-05T09:29:45.255Z,4.43
2023-02-05T09:32:13.208Z,4.80
2023-02-05T09:34:40.753Z,5.00
2023-02-05T09:37:08.163Z,4.90
2023-02-05T09:40:18.532Z,5.07
2023-02-05T09:42:28.842Z,5.00
2023-02-05T09:44:56.239Z,4.60
2023-02-05T09:47:29.774Z,5.80
2023-02-05T09:50:06.782Z,5.57
2023-02-05T09:52:37.069Z,6.03
2023-02-05T09:55:07.894Z,5.50
2023-02-05T09:57:38.160Z,5.27
2023-02-05T10:00:14.701Z,5.07
2023-02-05T10:02:51.836Z,4.90
2023-02-05T10:05:21.935Z,5.07
2023-02-05T10:08:04.738Z,6.53
2023-02-05T10:10:40.757Z,5.90
2023-02-05T10:13:27.099Z,4.80
2023-02-05T10:15:54.624Z,5.73
2023-02-05T10:18:27.417Z,5.10
2023-02-05T10:20:54.795Z,4.83
2023-02-05T10:23:34.587Z,4.80
2023-02-05T10:26:05.002Z,5.00
2023-02-05T10:28:50.824Z,4.70
2023-02-05T10:31:37.279Z,4.47
2023-02-05T10:34:07.786Z,4.83
2023-02-05T10:36:35.204Z,5.30
2023-02-05T10:39:02.985Z,4.60
2023-02-05T10:41:43.193Z,4.53
2023-02-05T10:44:10.608Z,4.87
2023-02-05T10:46:38.379Z,4.97
2023-02-05T10:49:17.766Z,4.77
2023-02-05T10:51:45.949Z,4.70
2023-02-05T10:54:16.509Z,4.80
2023-02-05T10:56:44.073Z,4.60
2023-02-05T10:59:16.978Z,4.37
2023-02-05T11:01:44.963Z,4.37
2023-02-05T11:04:14.244Z,4.63
2023-02-05T11:06:43.778Z,5.17
2023-02-05T11:09:26.431Z,4.47
2023-02-05T11:11:53.931Z,4.90
2023-02-05T11:14:32.221Z,4.10
2023-02-05T11:17:00.628Z,3.70
2023-02-05T11:19:28.745Z,4.07
2023-02-05T11:22:00.272Z,3.70
2023-02-05T11:24:39.575Z,3.57
2023-02-05T11:27:20.782Z,4.83
2023-02-05T11:29:48.300Z,3.47
2023-02-05T11:32:32.667Z,3.00
2023-02-05T11:35:19.226Z,2.77
2023-02-05T11:37:47.712Z,2.97
2023-02-05T11:40:20.127Z,2.97
2023-02-05T11:42:57.177Z,2.70
2023-02-05T11:45:25.872Z,2.60
2023-02-05T11:47:53.609Z,2.53
2023-02-05T11:50:25.315Z,2.80
2023-02-05T11:52:53.506Z,2.40
2023-02-05T11:55:32.201Z,2.20
2023-02-05T11:58:04.195Z,2.80
2023-02-05T12:00:32.069Z,2.30
2023-02-05T12:03:04.700Z,2.07
2023-02-05T12:05:33.743Z,2.20
2023-02-05T12:08:03.880Z,2.70
2023-02-05T12:10:31.363Z,2.33
2023-02-05T12:13:18.528Z,2.23
2023-02-05T12:15:50.430Z,2.20
2023-02-05T12:18:27.417Z,2.60
2023-02-05T12:21:14.338Z,3.10
2023-02-05T12:23:56.864Z,2.33
2023-02-05T12:26:33.984Z,2.47
2023-02-05T12:29:01.515Z,2.10
2023-02-05T12:31:43.713Z,2.30
2023-02-05T12:34:37.588Z,2.10
2023-02-05T12:37:07.972Z,2.50
2023-02-05T12:39:50.106Z,2.27
2023-02-05T12:42:20.667Z,2.57
2023-02-05T12:44:53.373Z,2.20
2023-02-05T12:47:31.007Z,2.20
2023-02-05T12:50:16.868Z,2.50
2023-02-05T12:52:58.703Z,2.50
2023-02-05T12:55:26.152Z,2.40
2023-02-05T12:57:55.096Z,2.03
2023-02-05T13:00:28.235Z,2.50
2023-02-05T13:03:01.877Z,2.13
2023-02-05T13:05:32.863Z,2.50
2023-02-05T13:08:09.027Z,2.40
2023-02-05T13:10:39.497Z,2.20
2023-02-05T13:13:11.707Z,2.43
2023-02-05T13:15:47.414Z,2.40
2023-02-05T13:18:14.828Z,2.50
2023-02-05T13:21:02.906Z,2.20
2023-02-05T13:23:49.430Z,2.20
2023-02-05T13:26:36.402Z,2.30
2023-02-05T13:29:08.071Z,1.93
2023-02-05T13:31:44.027Z,2.20
2023-02-05T13:34:15.543Z,2.40
2023-02-05T13:37:01.864Z,2.20
2023-02-05T13:39:49.482Z,2.60
2023-02-05T13:42:16.874Z,2.50
2023-02-05T13:44:47.263Z,2.20
2023-02-05T13:47:33.558Z,2.37
2023-02-05T13:50:00.956Z,2.50
2023-02-05T13:52:34.396Z,2.70
2023-02-05T13:55:20.650Z,2.40
2023-02-05T13:58:06.707Z,2.50
2023-02-05T14:00:34.947Z,2.50
2023-02-05T14:03:05.727Z,2.57
2023-02-05T14:05:35.692Z,3.13
2023-02-05T14:08:04.082Z,7.13
2023-02-05T14:10:33.291Z,6.70
2023-02-05T14:13:31.141Z,4.07
2023-02-05T14:16:00.508Z,3.70
2023-02-05T14:18:48.773Z,3.43
2023-02-05T14:21:31.553Z,3.67
2023-02-05T14:24:00.518Z,3.57
2023-02-05T14:26:48.390Z,4.93
2023-02-05T14:29:34.452Z,4.93
2023-02-05T14:32:01.855Z,3.83
2023-02-05T14:34:35.363Z,3.20
2023-02-05T14:37:03.017Z,2.90
2023-02-05T14:39:33.448Z,2.80
2023-02-05T14:42:05.813Z,2.80
2023-02-05T14:44:37.118Z,3.20
2023-02-05T14:47:26.389Z,3.27
2023-02-05T14:49:59.760Z,2.60
2023-02-05T14:52:34.071Z,2.90
2023-02-05T14:55:05.303Z,3.10
2023-02-05T14:57:35.806Z,2.63
2023-02-05T15:00:15.407Z,2.80
2023-02-05T15:03:02.129Z,3.10
2023-02-05T15:05:36.459Z,2.67
2023-02-05T15:08:11.321Z,2.67
2023-02-05T15:10:46.387Z,2.37
2023-02-05T15:13:16.073Z,2.60
2023-02-05T15:16:03.657Z,2.80
2023-02-05T15:18:33.641Z,2.60
2023-02-05T15:21:01.909Z,2.30
2023-02-05T15:23:39.620Z,2.50
2023-02-05T15:26:08.433Z,2.37
2023-02-05T15:28:39.451Z,2.30
2023-02-05T15:31:16.091Z,2.30
2023-02-05T15:33:53.125Z,2.50
2023-02-05T15:36:23.356Z,2.47
2023-02-05T15:38:57.490Z,2.40
2023-02-05T15:41:25.474Z,2.50
2023-02-05T15:44:00.341Z,3.20
2023-02-05T15:46:28.167Z,6.50
2023-02-05T15:48:56.063Z,3.50
2023-02-05T15:51:32.254Z,2.77
2023-02-05T15:54:01.903Z,4.57
2023-02-05T15:56:32.841Z,8.20
2023-02-05T15:59:12.534Z,6.27
2023-02-05T16:01:48.006Z,5.60
2023-02-05T16:04:32.352Z,4.60
2023-02-05T16:07:00.199Z,3.33
2023-02-05T16:09:29.171Z,3.50
2023-02-05T16:11:56.818Z,2.97
2023-02-05T16:14:25.733Z,3.00
2023-02-05T16:17:09.139Z,3.20
2023-02-05T16:19:36.544Z,3.30
2023-02-05T16:22:16.148Z,2.70
2023-02-05T16:24:44.289Z,2.50
2023-02-05T16:27:17.793Z,2.60
2023-02-05T16:29:51.363Z,2.70
2023-02-05T16:32:33.946Z,2.70
2023-02-05T16:35:03.277Z,2.60
2023-02-05T16:37:31.463Z,2.40
2023-02-05T16:40:01.210Z,2.40
2023-02-05T16:42:47.876Z,2.33
2023-02-05T16:45:20.272Z,2.50
2023-02-05T16:48:14.178Z,2.40
2023-02-05T16:50:44.789Z,2.23
2023-02-05T16:53:17.648Z,2.70
2023-02-05T16:55:45.294Z,2.20
2023-02-05T16:58:18.089Z,2.20
2023-02-05T17:00:51.965Z,2.30
2023-02-05T17:03:20.107Z,2.57
2023-02-05T17:05:54.343Z,2.63
2023-02-05T17:08:28.764Z,2.67
2023-02-05T17:10:56.939Z,2.67
2023-02-05T17:13:33.507Z,2.27
2023-02-05T17:16:19.259Z,2.60
2023-02-05T17:19:00.537Z,2.57
2023-02-05T17:21:29.321Z,2.50
2023-02-05T17:23:59.434Z,2.23
2023-02-05T17:26:28.378Z,1.97
2023-02-05T17:28:57.356Z,2.20
2023-02-05T17:31:26.533Z,2.30
2023-02-05T17:33:55.015Z,2.10
2023-02-05T17:36:22.538Z,2.30
2023-02-05T17:38:50.264Z,2.03
2023-02-05T17:41:38.084Z,2.40
2023-02-05T17:44:05.915Z,2.03
2023-02-05T17:46:33.700Z,2.23
2023-02-05T17:49:01.124Z,2.03
2023-02-05T17:51:28.893Z,2.20
2023-02-05T17:53:56.407Z,2.07
2023-02-05T17:56:23.886Z,2.13
2023-02-05T17:58:51.976Z,2.00
2023-02-05T18:01:20.049Z,2.07
2023-02-05T18:03:47.504Z,2.07
2023-02-05T18:06:16.028Z,2.10
2023-02-05T18:08:43.655Z,2.03
2023-02-05T18:11:11.371Z,2.00
2023-02-05T18:13:38.851Z,2.10
2023-02-05T18:16:06.671Z,2.10
2023-02-05T18:18:37.904Z,1.90
2023-02-05T18:21:05.892Z,2.00
2023-02-05T18:23:33.445Z,1.87
2023-02-05T18:26:01.424Z,2.00
2023-02-05T18:28:29.534Z,1.70
2023-02-05T18:31:01.401Z,1.90
2023-02-05T18:33:29.127Z,1.87
2023-02-05T18:36:00.526Z,1.77
2023-02-05T18:38:27.960Z,2.00
2023-02-05T18:40:55.380Z,2.07
2023-02-05T18:43:22.804Z,1.60
2023-02-05T18:45:50.264Z,1.80
2023-02-05T18:48:17.788Z,1.90
2023-02-05T18:50:45.181Z,1.70
2023-02-05T18:53:12.621Z,1.80
2023-02-05T18:55:40.448Z,1.80
2023-02-05T18:58:07.916Z,1.80
2023-02-05T19:00:35.617Z,1.73
2023-02-05T19:03:03.268Z,1.93
2023-02-05T19:05:31.962Z,2.00
2023-02-05T19:07:59.397Z,1.90
2023-02-05T19:10:26.807Z,1.57
2023-02-05T19:12:54.318Z,1.83
2023-02-05T19:15:21.943Z,1.60
2023-02-05T19:17:49.513Z,1.80
2023-02-05T19:20:17.241Z,1.97
2023-02-05T19:22:44.662Z,1.60
2023-02-05T19:25:12.200Z,1.80
2023-02-05T19:27:39.717Z,1.93
2023-02-05T19:30:07.370Z,2.10
2023-02-05T19:32:35.187Z,1.80
2023-02-05T19:35:03.984Z,1.70
2023-02-05T19:37:31.701Z,1.57
2023-02-05T19:39:59.115Z,1.80
2023-02-05T19:42:27.354Z,1.83
2023-02-05T19:44:54.865Z,1.63
2023-02-05T19:47:22.353Z,1.50
2023-02-05T19:49:49.764Z,1.80
2023-02-05T19:52:17.169Z,1.60
2023-02-05T19:54:44.865Z,1.70
2023-02-05T19:57:12.269Z,1.67
2023-02-05T19:59:39.667Z,1.67
2023-02-05T20:02:07.357Z,1.80
2023-02-05T20:04:34.839Z,1.60
2023-02-05T20:07:02.391Z,1.70
2023-02-05T20:09:31.911Z,1.60
2023-02-05T20:11:59.473Z,1.97
2023-02-05T20:14:26.872Z,1.60
2023-02-05T20:16:54.642Z,1.57
2023-02-05T20:19:22.291Z,1.77
2023-02-05T20:21:49.996Z,1.53
2023-02-05T20:24:17.609Z,1.60
2023-02-05T20:26:47.869Z,1.83
2023-02-05T20:29:33.752Z,1.70
2023-02-05T20:32:02.168Z,1.60
2023-02-05T20:34:35.729Z,1.87
2023-02-05T20:37:05.639Z,1.70
2023-02-05T20:39:35.273Z,1.70
2023-02-05T20:42:02.919Z,1.77
2023-02-05T20:44:31.288Z,1.77
2023-02-05T20:46:58.730Z,1.70
2023-02-05T20:49:26.365Z,1.70
2023-02-05T20:51:54.134Z,1.60
2023-02-05T20:54:22.484Z,1.90
2023-02-05T20:56:59.217Z,2.07
2023-02-05T20:59:27.350Z,1.80
2023-02-05T21:01:54.940Z,1.63
2023-02-05T21:04:22.477Z,1.80
2023-02-05T21:06:50.083Z,1.77
2023-02-05T21:09:17.843Z,1.90
2023-02-05T21:11:45.460Z,1.77
2023-02-05T21:14:12.919Z,1.60
2023-02-05T21:16:40.515Z,1.70
2023-02-05T21:19:09.236Z,1.70
2023-02-05T21:21:37.431Z,1.63
2023-02-05T21:24:07.052Z,1.80
2023-02-05T21:26:39.412Z,1.90
2023-02-05T21:29:10.327Z,1.93
2023-02-05T21:31:39.755Z,1.50
2023-02-05T21:34:08.764Z,1.90
2023-02-05T21:36:36.410Z,1.93
2023-02-05T21:39:04.303Z,1.70
2023-02-05T21:41:31.701Z,1.70
2023-02-05T21:44:00.244Z,1.90
2023-02-05T21:46:32.091Z,1.67
2023-02-05T21:49:00.399Z,1.80
2023-02-05T21:51:34.651Z,1.87
2023-02-05T21:54:03.874Z,2.00
2023-02-05T21:56:33.209Z,1.87
2023-02-05T21:59:00.714Z,2.10
2023-02-05T22:01:29.263Z,2.10
2023-02-05T22:03:58.165Z,1.90
2023-02-05T22:06:27.042Z,2.00
2023-02-05T22:08:56.149Z,2.27
2023-02-05T22:11:24.219Z,1.90
2023-02-05T22:13:53.987Z,2.10
2023-02-05T22:16:28.778Z,1.80
2023-02-05T22:18:57.290Z,2.10
2023-02-05T22:21:28.599Z,1.80
2023-02-05T22:23:57.564Z,2.07
2023-02-05T22:26:29.595Z,1.90
2023-02-05T22:28:59.249Z,2.17
2023-02-05T22:31:27.614Z,2.20
2023-02-05T22:33:55.145Z,2.20
2023-02-05T22:36:23.816Z,1.80
2023-02-05T22:38:52.042Z,2.10
2023-02-05T22:41:21.009Z,2.10
2023-02-05T22:43:48.730Z,2.10
2023-02-05T22:46:19.127Z,2.00
2023-02-05T22:48:47.370Z,1.90
2023-02-05T22:51:17.038Z,1.80
2023-02-05T22:53:44.476Z,1.97
2023-02-05T22:56:13.001Z,2.23
2023-02-05T22:58:41.817Z,1.93
2023-02-05T23:01:10.306Z,2.10
2023-02-05T23:03:38.613Z,2.10
2023-02-05T23:06:10.528Z,2.40
2023-02-05T23:08:38.195Z,2.10
2023-02-05T23:11:06.655Z,1.97
2023-02-05T23:13:34.137Z,2.40
2023-02-05T23:16:08.843Z,2.10
2023-02-05T23:18:36.620Z,2.10
2023-02-05T23:21:08.156Z,2.00
2023-02-05T23:23:35.641Z,2.10
2023-02-05T23:26:07.233Z,2.13
2023-02-05T23:28:34.635Z,1.87
2023-02-05T23:31:02.104Z,2.20
2023-02-05T23:33:29.737Z,2.10
2023-02-05T23:35:57.264Z,2.40
2023-02-05T23:38:25.164Z,2.37
2023-02-05T23:40:53.056Z,2.50
2023-02-05T23:43:21.577Z,2.10
2023-02-05T23:45:49.919Z,2.33
2023-02-05T23:48:17.562Z,2.20
2023-02-05T23:50:45.279Z,2.07
2023-02-05T23:53:12.746Z,2.33
2023-02-05T23:55:44.088Z,2.33
2023-02-05T23:58:11.877Z,2.03
